Browns Hollow, New York
Current Conditions -  °F | °C
As of 10:55 AM on Friday 19 Dec 2014 (Local Time) from KNY0 Reporting Station
Overcast Overcast  
Wind Chill: 14°   Ceiling: 1800
Heat Index: 25°   Visibility: 10mi
Dew Point: 18°   Wind: 12mph
Humidity: 75%   Direction: 290°WNW
Pressure: 30.04"   Gusts: 17mph
Location:  42.8548°N, 74.5942°W
Report Text: KNY0 191555Z AUTO 29010G15KT 250V310 10SM OVC018 M04/M08 A3004 RMK AO2 T10381076
Loading
Personal Weather Stations






























Interactive Weather Map New forecast layout! Learn more

10-Day Weather Forecast

Advertisements
Track Severe Weather on mobile